Terminal Aerodrome Forecast
Issued by NWS Quad Cities IA IL

Home | Current Version | Previous Version | Text Only | Print | Product List | Glossary On
Versions: 1 2 3 4 5 6 7 8 9 10 11 12 13 14 15 16 17 18 19 20 21 22 23 24 25 26 27 28 29 30 31 32 33 34 35 36 37 38 39 40 41
375
FTUS43 KDVN 250607 AAA
TAFMLI
TAF AMD
KMLI 250607Z 2506/2606 05012KT 4SM -RADZ BR BKN005 OVC015
      TEMPO 2506/2510 BKN015
     FM251000 04014G22KT 3SM -RADZ BR BKN006 OVC015
     FM251900 05013G20KT 5SM BR OVC015
     FM260000 02012KT 6SM BR VCSH OVC025=

USA.gov is the U.S. government's official web portal to all federal, state and local government web resources and services.